createdAt,value
2018-05-09T00:00:32.930Z,15.62
2018-05-09T00:03:01.004Z,15.61
2018-05-09T00:05:28.567Z,15.59
2018-05-09T00:07:56.146Z,15.69
2018-05-09T00:10:23.698Z,15.71
2018-05-09T00:12:51.223Z,15.77
2018-05-09T00:15:18.791Z,15.69
2018-05-09T00:17:46.356Z,15.66
2018-05-09T00:20:13.905Z,15.61
2018-05-09T00:22:41.429Z,15.44
2018-05-09T00:25:08.963Z,15.46
2018-05-09T00:27:36.615Z,15.44
2018-05-09T00:30:04.131Z,15.37
2018-05-09T00:32:31.701Z,15.29
2018-05-09T00:34:59.262Z,15.26
2018-05-09T00:37:26.833Z,15.24
2018-05-09T00:39:54.406Z,15.21
2018-05-09T00:42:21.929Z,15.14
2018-05-09T00:44:49.563Z,15.02
2018-05-09T00:47:17.063Z,14.97
2018-05-09T00:49:44.594Z,14.72
2018-05-09T00:52:12.133Z,14.62
2018-05-09T00:54:39.670Z,14.59
2018-05-09T00:57:07.226Z,14.57
2018-05-09T00:59:34.829Z,14.53
2018-05-09T01:02:02.381Z,14.48
2018-05-09T01:04:29.898Z,14.50
2018-05-09T01:06:57.405Z,14.55
2018-05-09T01:09:24.966Z,14.58
2018-05-09T01:11:52.498Z,14.55
2018-05-09T01:14:20.079Z,14.47
2018-05-09T01:16:47.638Z,14.41
2018-05-09T01:19:15.183Z,14.34
2018-05-09T01:21:42.700Z,14.26
2018-05-09T01:24:10.500Z,14.22
2018-05-09T01:26:38.058Z,14.20
2018-05-09T01:29:05.626Z,14.25
2018-05-09T01:31:33.135Z,14.24
2018-05-09T01:34:00.694Z,14.19
2018-05-09T01:36:28.259Z,14.15
2018-05-09T01:38:55.827Z,14.07
2018-05-09T01:41:23.435Z,13.97
2018-05-09T01:43:50.967Z,13.89
2018-05-09T01:46:18.534Z,13.80
2018-05-09T01:48:46.102Z,13.72
2018-05-09T01:51:13.686Z,13.66
2018-05-09T01:53:41.181Z,13.60
2018-05-09T01:56:08.691Z,13.52
2018-05-09T01:58:36.269Z,13.46
2018-05-09T02:01:03.794Z,13.42
2018-05-09T02:03:31.351Z,13.35
2018-05-09T02:05:58.936Z,13.36
2018-05-09T02:08:26.441Z,13.45
2018-05-09T02:10:53.979Z,13.56
2018-05-09T02:13:21.485Z,13.58
2018-05-09T02:15:49.044Z,13.57
2018-05-09T02:18:17.485Z,13.51
2018-05-09T02:20:45.033Z,13.44
2018-05-09T02:23:12.563Z,13.40
2018-05-09T02:25:40.085Z,13.41
2018-05-09T02:28:07.695Z,13.38
2018-05-09T02:30:35.193Z,13.31
2018-05-09T02:33:02.722Z,13.31
2018-05-09T02:35:30.277Z,13.32
2018-05-09T02:37:57.833Z,13.36
2018-05-09T02:40:25.413Z,13.36
2018-05-09T02:42:52.930Z,13.34
2018-05-09T02:45:20.437Z,13.33
2018-05-09T02:47:47.962Z,13.26
2018-05-09T02:50:15.490Z,13.16
2018-05-09T02:52:43.860Z,13.15
2018-05-09T02:55:11.389Z,13.10
2018-05-09T02:57:38.906Z,13.02
2018-05-09T03:00:06.480Z,12.94
2018-05-09T03:02:34.429Z,12.88
2018-05-09T03:05:01.982Z,12.84
2018-05-09T03:07:29.510Z,12.84
2018-05-09T03:09:57.052Z,12.80
2018-05-09T03:12:24.610Z,12.78
2018-05-09T03:14:52.131Z,12.73
2018-05-09T03:17:19.682Z,12.67
2018-05-09T03:19:47.229Z,12.62
2018-05-09T03:22:14.773Z,12.57
2018-05-09T03:24:42.320Z,12.51
2018-05-09T03:27:09.830Z,12.47
2018-05-09T03:29:37.432Z,12.43
2018-05-09T03:32:04.971Z,12.40
2018-05-09T03:34:32.513Z,12.36
2018-05-09T03:37:00.075Z,12.31
2018-05-09T03:39:27.632Z,12.27
2018-05-09T03:41:55.188Z,12.28
2018-05-09T03:44:22.699Z,12.29
2018-05-09T03:46:50.207Z,12.29
2018-05-09T03:49:17.793Z,12.26
2018-05-09T03:51:45.363Z,12.30
2018-05-09T03:54:12.935Z,12.34
2018-05-09T03:56:40.458Z,12.46
2018-05-09T03:59:08.012Z,12.78
2018-05-09T04:04:46.430Z,13.77
2018-05-09T04:10:19.727Z,14.82
2018-05-09T04:12:47.218Z,15.36
2018-05-09T04:15:14.754Z,15.86
2018-05-09T04:17:42.310Z,16.41
2018-05-09T04:20:09.861Z,16.71
2018-05-09T04:22:37.376Z,17.27
2018-05-09T04:25:04.889Z,17.30
2018-05-09T04:27:32.492Z,17.85
2018-05-09T04:29:59.995Z,18.18
2018-05-09T04:32:27.490Z,18.54
2018-05-09T04:34:55.038Z,18.78
2018-05-09T04:37:22.560Z,18.85
2018-05-09T04:39:50.084Z,19.22
2018-05-09T04:42:17.581Z,19.38
2018-05-09T04:44:45.087Z,20.14
2018-05-09T04:47:12.620Z,20.64
2018-05-09T04:49:40.107Z,21.26
2018-05-09T04:52:07.638Z,21.52
2018-05-09T04:54:35.147Z,22.25
2018-05-09T04:57:02.655Z,22.64
2018-05-09T04:59:30.188Z,23.03
2018-05-09T05:01:57.700Z,23.27
2018-05-09T05:04:25.266Z,24.37
2018-05-09T05:06:52.847Z,24.38
2018-05-09T05:09:20.357Z,24.82
2018-05-09T05:11:47.878Z,25.10
2018-05-09T05:14:15.420Z,25.39
2018-05-09T05:16:42.974Z,25.65
2018-05-09T05:19:10.502Z,25.88
2018-05-09T05:21:38.005Z,25.84
2018-05-09T05:24:05.761Z,26.35
2018-05-09T05:26:33.269Z,26.17
2018-05-09T05:29:00.859Z,26.11
2018-05-09T05:31:28.368Z,26.61
2018-05-09T05:33:55.922Z,24.41
2018-05-09T05:36:23.451Z,23.28
2018-05-09T05:38:51.057Z,23.36
2018-05-09T05:41:18.565Z,24.33
2018-05-09T05:43:46.090Z,25.30
2018-05-09T05:46:13.589Z,24.68
2018-05-09T05:48:41.160Z,23.70
2018-05-09T05:51:08.655Z,24.41
2018-05-09T05:53:36.833Z,23.46
2018-05-09T05:56:04.421Z,23.54
2018-05-09T05:58:31.871Z,23.16
2018-05-09T06:00:59.453Z,23.30
2018-05-09T06:03:26.978Z,23.52
2018-05-09T06:05:54.526Z,23.78
2018-05-09T06:08:22.051Z,23.21
2018-05-09T06:10:49.574Z,24.04
2018-05-09T06:13:17.103Z,25.75
2018-05-09T06:15:44.660Z,27.00
2018-05-09T06:18:12.223Z,27.34
2018-05-09T06:20:39.746Z,26.42
2018-05-09T06:23:07.243Z,25.19
2018-05-09T06:25:34.815Z,24.82
2018-05-09T06:28:02.365Z,25.25
2018-05-09T06:30:29.907Z,26.40
2018-05-09T06:32:57.447Z,26.63
2018-05-09T06:35:24.991Z,25.16
2018-05-09T06:37:52.540Z,25.19
2018-05-09T06:40:20.080Z,26.00
2018-05-09T06:42:47.622Z,26.12
2018-05-09T06:45:15.150Z,26.42
2018-05-09T06:47:42.663Z,26.72
2018-05-09T06:50:10.200Z,27.72
2018-05-09T06:52:37.735Z,27.93
2018-05-09T06:55:05.345Z,28.41
2018-05-09T06:57:32.868Z,28.40
2018-05-09T07:00:00.472Z,27.36
2018-05-09T07:02:27.979Z,28.05
2018-05-09T07:04:55.497Z,27.53
2018-05-09T07:07:23.035Z,27.39
2018-05-09T07:09:50.562Z,27.11
2018-05-09T07:12:18.065Z,27.63
2018-05-09T07:14:45.665Z,26.42
2018-05-09T07:17:13.157Z,28.53
2018-05-09T07:19:40.725Z,28.31
2018-05-09T07:22:08.311Z,26.22
2018-05-09T07:24:35.758Z,25.93
2018-05-09T07:27:03.352Z,25.84
2018-05-09T07:29:30.873Z,27.15
2018-05-09T07:31:58.409Z,26.44
2018-05-09T07:34:25.926Z,26.14
2018-05-09T07:36:53.472Z,27.95
2018-05-09T07:39:21.026Z,26.24
2018-05-09T07:41:48.536Z,26.74
2018-05-09T07:44:16.070Z,25.99
2018-05-09T07:46:43.573Z,25.94
2018-05-09T07:49:11.103Z,26.38
2018-05-09T07:51:38.653Z,27.22
2018-05-09T07:54:06.191Z,27.67
2018-05-09T07:56:33.733Z,25.60
2018-05-09T07:59:01.234Z,26.35
2018-05-09T08:01:28.726Z,26.12
2018-05-09T08:03:56.263Z,27.51
2018-05-09T08:06:23.774Z,27.38
2018-05-09T08:08:51.304Z,26.70
2018-05-09T08:11:18.798Z,27.31
2018-05-09T08:13:46.302Z,27.08
2018-05-09T08:16:13.843Z,27.39
2018-05-09T08:18:41.374Z,27.81
2018-05-09T08:21:08.912Z,27.43
2018-05-09T08:23:36.435Z,26.65
2018-05-09T08:26:03.932Z,27.27
2018-05-09T08:28:31.489Z,27.21
2018-05-09T08:30:59.009Z,27.26
2018-05-09T08:33:26.517Z,27.05
2018-05-09T08:35:54.068Z,26.77
2018-05-09T08:38:21.550Z,26.77
2018-05-09T08:40:49.082Z,26.60
2018-05-09T08:43:16.674Z,27.63
2018-05-09T08:45:44.157Z,27.18
2018-05-09T08:48:11.682Z,27.46
2018-05-09T08:50:39.207Z,28.24
2018-05-09T08:53:06.798Z,28.64
2018-05-09T08:55:34.453Z,31.28
2018-05-09T08:58:01.907Z,29.03
2018-05-09T09:00:29.904Z,29.08
2018-05-09T09:02:57.443Z,28.49
2018-05-09T09:05:25.016Z,28.06
2018-05-09T09:07:52.517Z,28.61
2018-05-09T09:10:20.062Z,27.47
2018-05-09T09:12:47.589Z,27.55
2018-05-09T09:15:15.233Z,27.79
2018-05-09T09:17:42.765Z,27.58
2018-05-09T09:20:10.363Z,27.62
2018-05-09T09:22:37.929Z,27.34
2018-05-09T09:25:05.437Z,28.10
2018-05-09T09:27:32.959Z,27.63
2018-05-09T09:30:00.516Z,27.80
2018-05-09T09:32:28.008Z,26.83
2018-05-09T09:34:55.631Z,28.11
2018-05-09T09:37:23.194Z,28.27
2018-05-09T09:39:50.723Z,30.00
2018-05-09T09:42:18.296Z,30.71
2018-05-09T09:44:45.830Z,31.19
2018-05-09T09:47:13.426Z,30.61
2018-05-09T09:49:41.004Z,30.77
2018-05-09T09:52:08.540Z,28.96
2018-05-09T09:54:36.059Z,28.31
2018-05-09T09:57:03.592Z,28.48
2018-05-09T09:59:31.152Z,28.36
2018-05-09T10:01:58.669Z,29.70
2018-05-09T10:04:26.213Z,28.03
2018-05-09T10:06:53.784Z,28.21
2018-05-09T10:09:21.293Z,27.90
2018-05-09T10:11:48.849Z,28.03
2018-05-09T10:14:16.337Z,27.78
2018-05-09T10:16:43.837Z,27.14
2018-05-09T10:19:11.479Z,28.31
2018-05-09T10:21:39.065Z,28.04
2018-05-09T10:24:06.651Z,28.88
2018-05-09T10:26:34.198Z,29.51
2018-05-09T10:29:01.713Z,29.07
2018-05-09T10:31:29.292Z,28.25
2018-05-09T10:33:56.813Z,26.08
2018-05-09T10:36:24.402Z,28.01
2018-05-09T10:38:51.967Z,28.66
2018-05-09T10:41:19.487Z,28.68
2018-05-09T10:43:47.062Z,29.04
2018-05-09T10:46:14.599Z,29.62
2018-05-09T10:48:42.187Z,29.34
2018-05-09T10:51:09.773Z,30.14
2018-05-09T10:53:37.314Z,29.19
2018-05-09T10:56:04.817Z,29.08
2018-05-09T10:58:32.362Z,28.88
2018-05-09T11:00:59.866Z,30.15
2018-05-09T11:03:27.459Z,29.63
2018-05-09T11:05:55.014Z,29.45
2018-05-09T11:08:22.539Z,28.41
2018-05-09T11:10:50.140Z,27.40
2018-05-09T11:13:17.685Z,26.64
2018-05-09T11:15:45.223Z,26.05
2018-05-09T11:18:12.747Z,27.94
2018-05-09T11:20:40.262Z,25.87
2018-05-09T11:23:07.799Z,24.53
2018-05-09T11:25:35.337Z,24.50
2018-05-09T11:28:03.845Z,24.71
2018-05-09T11:30:31.381Z,24.56
2018-05-09T11:32:58.907Z,24.08
2018-05-09T11:35:26.475Z,24.45
2018-05-09T11:37:53.999Z,24.28
2018-05-09T11:40:21.560Z,24.79
2018-05-09T11:42:49.087Z,25.79
2018-05-09T11:45:16.636Z,26.50
2018-05-09T11:47:44.180Z,24.92
2018-05-09T11:50:11.704Z,26.18
2018-05-09T11:52:39.255Z,26.49
2018-05-09T11:55:06.812Z,25.46
2018-05-09T11:57:34.324Z,24.82
2018-05-09T12:00:01.890Z,24.12
2018-05-09T12:02:29.512Z,23.80
2018-05-09T12:04:57.022Z,23.83
2018-05-09T12:07:24.556Z,24.02
2018-05-09T12:09:52.104Z,24.15
2018-05-09T12:12:19.677Z,23.86
2018-05-09T12:14:47.219Z,23.88
2018-05-09T12:17:14.745Z,24.47
2018-05-09T12:19:42.291Z,24.16
2018-05-09T12:22:09.823Z,24.26
2018-05-09T12:24:37.438Z,24.10
2018-05-09T12:27:04.971Z,23.79
2018-05-09T12:29:32.531Z,23.67
2018-05-09T12:32:00.056Z,23.63
2018-05-09T12:34:27.585Z,23.76
2018-05-09T12:36:55.134Z,23.89
2018-05-09T12:39:22.702Z,23.49
2018-05-09T12:41:50.307Z,23.17
2018-05-09T12:44:18.878Z,23.42
2018-05-09T12:46:46.558Z,23.55
2018-05-09T12:49:14.117Z,23.48
2018-05-09T12:51:41.641Z,23.41
2018-05-09T12:54:09.193Z,23.60
2018-05-09T12:56:36.730Z,23.72
2018-05-09T12:59:04.266Z,23.72
2018-05-09T13:01:31.813Z,24.16
2018-05-09T13:03:59.336Z,24.43
2018-05-09T13:06:26.893Z,24.56
2018-05-09T13:08:54.418Z,24.80
2018-05-09T13:11:23.985Z,25.07
2018-05-09T13:13:51.529Z,25.09
2018-05-09T13:16:19.054Z,24.88
2018-05-09T13:18:46.641Z,25.24
2018-05-09T13:21:14.165Z,24.74
2018-05-09T13:23:41.734Z,24.64
2018-05-09T13:26:09.313Z,24.65
2018-05-09T13:28:36.876Z,24.76
2018-05-09T13:31:05.173Z,24.91
2018-05-09T13:33:32.707Z,24.51
2018-05-09T13:36:00.216Z,24.75
2018-05-09T13:38:27.749Z,24.93
2018-05-09T13:40:55.251Z,24.84
2018-05-09T13:43:22.795Z,24.84
2018-05-09T13:45:50.318Z,24.78
2018-05-09T13:48:17.863Z,25.04
2018-05-09T13:50:45.446Z,25.01
2018-05-09T13:53:12.955Z,24.77
2018-05-09T13:55:40.489Z,24.88
2018-05-09T13:58:07.996Z,25.02
2018-05-09T14:00:35.518Z,25.46
2018-05-09T14:03:03.038Z,25.39
2018-05-09T14:05:30.538Z,25.55
2018-05-09T14:07:58.071Z,25.92
2018-05-09T14:10:25.566Z,25.18
2018-05-09T14:12:53.066Z,24.86
2018-05-09T14:15:20.583Z,24.75
2018-05-09T14:17:48.076Z,25.02
2018-05-09T14:20:15.612Z,25.19
2018-05-09T14:22:43.112Z,25.22
2018-05-09T14:25:10.623Z,25.20
2018-05-09T14:27:38.159Z,25.17
2018-05-09T14:30:05.718Z,24.71
2018-05-09T14:32:33.255Z,24.77
2018-05-09T14:35:00.762Z,25.09
2018-05-09T14:37:28.270Z,24.80
2018-05-09T14:39:55.797Z,24.53
2018-05-09T14:42:23.295Z,24.80
2018-05-09T14:44:51.756Z,24.72
2018-05-09T14:47:19.258Z,24.65
2018-05-09T14:49:46.759Z,24.58
2018-05-09T14:52:14.278Z,24.62
2018-05-09T14:54:41.781Z,24.76
2018-05-09T14:57:09.310Z,24.96
2018-05-09T14:59:36.807Z,25.29
2018-05-09T15:02:04.310Z,25.52
2018-05-09T15:04:31.833Z,25.51
2018-05-09T15:06:59.334Z,25.51
2018-05-09T15:09:26.907Z,25.75
2018-05-09T15:11:54.445Z,25.64
2018-05-09T15:14:21.946Z,25.56
2018-05-09T15:16:49.463Z,25.84
2018-05-09T15:19:16.962Z,25.47
2018-05-09T15:21:44.487Z,25.19
2018-05-09T15:24:11.990Z,25.10
2018-05-09T15:26:39.481Z,24.78
2018-05-09T15:29:07.010Z,24.66
2018-05-09T15:31:34.561Z,24.64
2018-05-09T15:34:02.095Z,24.53
2018-05-09T15:36:29.598Z,24.55
2018-05-09T15:38:57.134Z,24.47
2018-05-09T15:41:24.641Z,24.41
2018-05-09T15:43:52.154Z,24.48
2018-05-09T15:46:19.670Z,24.40
2018-05-09T15:48:47.170Z,24.43
2018-05-09T15:51:14.668Z,24.47
2018-05-09T15:53:42.195Z,24.37
2018-05-09T15:56:09.702Z,24.14
2018-05-09T15:58:38.226Z,24.10
2018-05-09T16:01:05.722Z,24.01
2018-05-09T16:03:33.232Z,23.65
2018-05-09T16:06:00.768Z,23.36
2018-05-09T16:08:28.263Z,23.26
2018-05-09T16:10:55.815Z,23.17
2018-05-09T16:13:23.323Z,23.08
2018-05-09T16:15:50.839Z,23.13
2018-05-09T16:18:18.353Z,22.94
2018-05-09T16:20:45.851Z,22.84
2018-05-09T16:23:13.381Z,22.81
2018-05-09T16:25:40.890Z,22.78
2018-05-09T16:28:08.386Z,22.72
2018-05-09T16:30:35.909Z,22.70
2018-05-09T16:33:03.411Z,22.76
2018-05-09T16:35:30.951Z,22.96
2018-05-09T16:37:58.458Z,23.08
2018-05-09T16:40:25.965Z,23.19
2018-05-09T16:42:53.494Z,23.17
2018-05-09T16:45:21.003Z,22.98
2018-05-09T16:47:48.535Z,22.88
2018-05-09T16:50:16.032Z,22.84
2018-05-09T16:52:43.530Z,22.92
2018-05-09T16:55:11.055Z,22.96
2018-05-09T16:57:38.571Z,22.84
2018-05-09T17:00:07.106Z,22.64
2018-05-09T17:02:34.609Z,22.53
2018-05-09T17:05:02.109Z,22.49
2018-05-09T17:07:29.635Z,22.49
2018-05-09T17:09:57.142Z,22.50
2018-05-09T17:12:24.667Z,22.50
2018-05-09T17:14:52.175Z,22.44
2018-05-09T17:17:19.686Z,22.39
2018-05-09T17:19:47.216Z,22.28
2018-05-09T17:22:28.565Z,22.27
2018-05-09T17:24:56.095Z,22.21
2018-05-09T17:27:23.641Z,22.18
2018-05-09T17:29:51.144Z,22.10
2018-05-09T17:32:18.673Z,22.05
2018-05-09T17:34:46.217Z,21.87
2018-05-09T17:37:13.718Z,21.81
2018-05-09T17:39:41.245Z,21.73
2018-05-09T17:42:08.750Z,21.68
2018-05-09T17:44:36.255Z,21.60
2018-05-09T17:47:03.785Z,21.64
2018-05-09T17:49:31.289Z,21.56
2018-05-09T17:51:58.781Z,21.57
2018-05-09T17:54:26.311Z,21.45
2018-05-09T17:56:53.902Z,21.39
2018-05-09T17:59:21.441Z,21.34
2018-05-09T18:01:48.938Z,21.31
2018-05-09T18:04:16.447Z,21.14
2018-05-09T18:06:43.969Z,21.17
2018-05-09T18:09:11.486Z,21.11
2018-05-09T18:11:39.018Z,21.03
2018-05-09T18:14:06.528Z,20.95
2018-05-09T18:16:34.021Z,20.92
2018-05-09T18:19:01.631Z,20.90
2018-05-09T18:21:29.044Z,20.83
2018-05-09T18:23:56.569Z,20.75
2018-05-09T18:26:24.069Z,20.73
2018-05-09T18:28:51.569Z,20.66
2018-05-09T18:31:19.097Z,20.59
2018-05-09T18:33:46.627Z,20.52
2018-05-09T18:36:14.169Z,20.41
2018-05-09T18:38:41.669Z,20.35
2018-05-09T18:41:09.182Z,20.16
2018-05-09T18:43:36.705Z,19.56
2018-05-09T18:46:04.190Z,19.91
2018-05-09T18:48:31.729Z,19.79
2018-05-09T18:50:59.237Z,19.65
2018-05-09T18:53:26.751Z,19.57
2018-05-09T18:55:54.275Z,19.47
2018-05-09T18:58:21.765Z,19.36
2018-05-09T19:00:49.296Z,19.28
2018-05-09T19:03:16.796Z,19.13
2018-05-09T19:05:44.302Z,19.01
2018-05-09T19:08:11.825Z,18.87
2018-05-09T19:10:39.330Z,18.66
2018-05-09T19:13:06.866Z,18.57
2018-05-09T19:15:34.385Z,18.44
2018-05-09T19:18:01.896Z,18.30
2018-05-09T19:20:29.427Z,18.18
2018-05-09T19:22:56.925Z,18.07
2018-05-09T19:25:24.458Z,17.96
2018-05-09T19:27:51.949Z,17.91
2018-05-09T19:30:19.455Z,17.82
2018-05-09T19:32:47.012Z,17.75
2018-05-09T19:35:14.602Z,17.68
2018-05-09T19:37:42.160Z,17.59
2018-05-09T19:40:09.718Z,17.51
2018-05-09T19:42:37.232Z,17.43
2018-05-09T19:45:04.793Z,17.42
2018-05-09T19:47:32.364Z,17.38
2018-05-09T19:49:59.906Z,17.33
2018-05-09T19:52:27.423Z,17.25
2018-05-09T19:54:54.949Z,17.19
2018-05-09T19:57:22.955Z,17.13
2018-05-09T19:59:50.494Z,17.03
2018-05-09T20:02:18.143Z,16.98
2018-05-09T20:04:45.673Z,16.94
2018-05-09T20:07:13.272Z,16.87
2018-05-09T20:09:40.790Z,16.86
2018-05-09T20:12:09.212Z,16.84
2018-05-09T20:14:36.977Z,16.79
2018-05-09T20:17:05.030Z,16.77
2018-05-09T20:19:32.588Z,16.76
2018-05-09T20:22:00.115Z,16.67
2018-05-09T20:24:27.920Z,16.78
2018-05-09T20:26:55.675Z,16.84
2018-05-09T20:29:23.346Z,16.89
2018-05-09T20:32:02.801Z,16.82
2018-05-09T20:34:30.362Z,16.70
2018-05-09T20:36:58.094Z,16.66
2018-05-09T20:39:25.935Z,16.63
2018-05-09T20:41:53.581Z,16.63
2018-05-09T20:44:21.146Z,16.63
2018-05-09T20:46:48.938Z,16.61
2018-05-09T20:49:16.792Z,16.58
2018-05-09T20:51:51.330Z,16.44
2018-05-09T20:54:19.557Z,16.41
2018-05-09T20:56:47.383Z,16.48
2018-05-09T20:59:15.135Z,16.44
2018-05-09T21:01:48.607Z,16.43
2018-05-09T21:04:16.225Z,16.40
2018-05-09T21:06:43.808Z,16.40
2018-05-09T21:09:11.364Z,16.40
2018-05-09T21:11:38.956Z,16.42
2018-05-09T21:14:06.542Z,16.35
2018-05-09T21:16:34.128Z,16.32
2018-05-09T21:19:01.720Z,16.22
2018-05-09T21:21:29.277Z,16.16
2018-05-09T21:23:56.940Z,16.10
2018-05-09T21:26:24.544Z,16.04
2018-05-09T21:28:52.082Z,15.94
2018-05-09T21:31:19.606Z,15.97
2018-05-09T21:33:47.247Z,15.96
2018-05-09T21:36:14.818Z,15.82
2018-05-09T21:38:42.389Z,15.65
2018-05-09T21:41:09.955Z,15.55
2018-05-09T21:43:37.474Z,15.51
2018-05-09T21:46:04.996Z,15.49
2018-05-09T21:48:32.549Z,15.44
2018-05-09T21:51:00.210Z,15.49
2018-05-09T21:53:27.754Z,15.50
2018-05-09T21:55:55.379Z,15.45
2018-05-09T21:58:22.895Z,15.21
2018-05-09T22:00:50.462Z,15.03
2018-05-09T22:03:17.996Z,14.97
2018-05-09T22:05:45.566Z,14.95
2018-05-09T22:08:13.212Z,14.89
2018-05-09T22:10:40.760Z,14.84
2018-05-09T22:13:08.335Z,14.80
2018-05-09T22:15:35.938Z,14.79
2018-05-09T22:18:03.458Z,14.76
2018-05-09T22:20:30.971Z,14.69
2018-05-09T22:22:58.551Z,14.61
2018-05-09T22:25:26.089Z,14.59
2018-05-09T22:27:53.642Z,14.67
2018-05-09T22:30:21.197Z,14.65
2018-05-09T22:32:48.776Z,14.60
2018-05-09T22:35:16.326Z,14.61
2018-05-09T22:37:43.853Z,14.45
2018-05-09T22:40:11.427Z,14.21
2018-05-09T22:42:39.008Z,14.07
2018-05-09T22:45:06.541Z,14.03
2018-05-09T22:47:34.106Z,13.97
2018-05-09T22:50:01.680Z,13.93
2018-05-09T22:52:29.230Z,13.98
2018-05-09T22:54:56.819Z,14.04
2018-05-09T22:57:24.309Z,13.95
2018-05-09T22:59:51.861Z,13.90
2018-05-09T23:02:19.451Z,13.84
2018-05-09T23:04:46.989Z,13.86
2018-05-09T23:07:14.561Z,13.92
2018-05-09T23:09:42.067Z,13.98
2018-05-09T23:12:09.652Z,14.02
2018-05-09T23:14:37.171Z,13.96
2018-05-09T23:17:04.785Z,13.92
2018-05-09T23:19:32.375Z,13.86
2018-05-09T23:21:59.892Z,13.64
2018-05-09T23:24:27.439Z,13.49
2018-05-09T23:26:54.996Z,13.79
2018-05-09T23:29:22.557Z,14.26
2018-05-09T23:31:50.083Z,14.12
2018-05-09T23:34:17.597Z,13.92
2018-05-09T23:36:45.181Z,13.75
2018-05-09T23:39:12.728Z,13.62
2018-05-09T23:41:40.435Z,13.57
2018-05-09T23:44:07.993Z,13.48
2018-05-09T23:46:35.587Z,13.36
2018-05-09T23:49:03.118Z,13.26
2018-05-09T23:51:30.614Z,13.23
2018-05-09T23:53:58.158Z,13.28
2018-05-09T23:56:26.667Z,13.25
2018-05-09T23:58:54.185Z,13.24
